createdAt,value
2018-04-07T00:02:28.377Z,9.10
2018-04-07T00:04:56.054Z,9.10
2018-04-07T00:07:23.825Z,9.20
2018-04-07T00:09:51.477Z,9.10
2018-04-07T00:12:19.134Z,9.00
2018-04-07T00:14:46.751Z,9.10
2018-04-07T00:17:14.447Z,9.20
2018-04-07T00:19:42.114Z,9.20
2018-04-07T00:22:09.788Z,9.30
2018-04-07T00:24:37.537Z,9.30
2018-04-07T00:27:05.151Z,9.20
2018-04-07T00:29:33.526Z,9.40
2018-04-07T00:32:01.934Z,9.30
2018-04-07T00:34:29.621Z,9.30
2018-04-07T00:36:57.385Z,9.30
2018-04-07T00:39:24.994Z,9.30
2018-04-07T00:41:53.496Z,9.30
2018-04-07T00:44:21.139Z,9.30
2018-04-07T00:46:49.570Z,9.10
2018-04-07T00:49:17.360Z,9.10
2018-04-07T00:51:44.985Z,9.20
2018-04-07T00:54:12.595Z,9.20
2018-04-07T00:56:41.032Z,9.20
2018-04-07T00:59:09.650Z,9.20
2018-04-07T01:01:37.299Z,9.10
2018-04-07T01:04:04.950Z,9.10
2018-04-07T01:06:32.590Z,9.20
2018-04-07T01:09:00.295Z,9.00
2018-04-07T01:11:27.954Z,9.10
2018-04-07T01:13:55.606Z,9.10
2018-04-07T01:16:23.229Z,9.20
2018-04-07T01:18:50.942Z,9.10
2018-04-07T01:21:19.110Z,9.00
2018-04-07T01:23:46.755Z,9.00
2018-04-07T01:26:14.830Z,9.00
2018-04-07T01:28:42.627Z,9.10
2018-04-07T01:31:10.245Z,9.00
2018-04-07T01:33:38.023Z,9.10
2018-04-07T01:36:05.650Z,9.10
2018-04-07T01:38:33.314Z,9.10
2018-04-07T01:41:00.970Z,9.00
2018-04-07T01:43:29.187Z,8.90
2018-04-07T01:45:56.808Z,8.90
2018-04-07T01:48:25.228Z,9.00
2018-04-07T01:50:53.643Z,8.90
2018-04-07T01:53:21.311Z,8.90
2018-04-07T01:55:49.704Z,8.80
2018-04-07T01:58:17.531Z,8.80
2018-04-07T02:00:45.191Z,8.90
2018-04-07T02:03:12.803Z,8.90
2018-04-07T02:05:40.443Z,8.90
2018-04-07T02:08:08.874Z,8.90
2018-04-07T02:10:36.546Z,8.90
2018-04-07T02:13:04.542Z,8.80
2018-04-07T02:15:32.150Z,8.90
2018-04-07T02:18:00.549Z,8.80
2018-04-07T02:20:28.226Z,8.80
2018-04-07T02:22:55.978Z,8.70
2018-04-07T02:25:23.587Z,8.70
2018-04-07T02:27:51.999Z,8.70
2018-04-07T02:30:19.658Z,8.70
2018-04-07T02:32:47.317Z,8.60
2018-04-07T02:35:14.946Z,8.50
2018-04-07T02:37:42.566Z,8.60
2018-04-07T02:40:10.224Z,8.50
2018-04-07T02:42:37.920Z,8.50
2018-04-07T02:45:07.039Z,8.30
2018-04-07T02:47:35.483Z,8.30
2018-04-07T02:50:03.143Z,8.30
2018-04-07T02:52:30.831Z,8.30
2018-04-07T02:54:58.446Z,8.30
2018-04-07T02:57:26.105Z,8.30
2018-04-07T02:59:53.759Z,8.30
2018-04-07T03:02:21.420Z,8.40
2018-04-07T03:04:49.038Z,8.30
2018-04-07T03:07:16.871Z,8.40
2018-04-07T03:09:44.527Z,8.50
2018-04-07T03:12:12.158Z,8.50
2018-04-07T03:14:40.562Z,8.50
2018-04-07T03:17:08.170Z,8.40
2018-04-07T03:19:35.815Z,8.50
2018-04-07T03:22:03.423Z,8.50
2018-04-07T03:24:31.086Z,8.40
2018-04-07T03:26:58.708Z,8.40
2018-04-07T03:29:26.355Z,8.40
2018-04-07T03:31:53.994Z,8.30
2018-04-07T03:34:21.602Z,8.40
2018-04-07T03:36:49.246Z,8.30
2018-04-07T03:39:16.859Z,8.30
2018-04-07T03:41:44.566Z,8.20
2018-04-07T03:44:12.234Z,8.20
2018-04-07T03:46:39.860Z,8.20
2018-04-07T03:49:07.470Z,8.20
2018-04-07T03:51:35.110Z,8.10
2018-04-07T03:54:02.771Z,8.10
2018-04-07T03:56:30.451Z,8.10
2018-04-07T03:58:59.110Z,8.20
2018-04-07T04:01:26.763Z,8.20
2018-04-07T04:03:54.407Z,8.20
2018-04-07T04:06:22.096Z,8.10
2018-04-07T04:08:49.775Z,8.20
2018-04-07T04:11:17.547Z,8.10
2018-04-07T04:13:45.192Z,8.10
2018-04-07T04:16:12.807Z,8.10
2018-04-07T04:18:41.218Z,8.20
2018-04-07T04:21:08.831Z,8.20
2018-04-07T04:23:36.479Z,8.20
2018-04-07T04:26:04.086Z,8.20
2018-04-07T04:28:32.510Z,8.30
2018-04-07T04:31:00.110Z,8.30
2018-04-07T04:33:28.528Z,8.40
2018-04-07T04:35:56.180Z,8.30
2018-04-07T04:38:23.808Z,8.30
2018-04-07T04:40:52.231Z,8.40
2018-04-07T04:43:19.844Z,8.40
2018-04-07T04:45:49.147Z,8.50
2018-04-07T04:48:16.839Z,8.50
2018-04-07T04:50:44.506Z,8.40
2018-04-07T04:53:12.111Z,8.50
2018-04-07T04:55:39.854Z,8.50
2018-04-07T04:58:07.463Z,8.50
2018-04-07T05:00:35.838Z,9.00
2018-04-07T05:03:04.396Z,9.30
2018-04-07T05:05:32.039Z,9.30
2018-04-07T05:07:59.714Z,9.40
2018-04-07T05:10:27.361Z,9.40
2018-04-07T05:12:54.974Z,9.70
2018-04-07T05:15:23.391Z,10.00
2018-04-07T05:17:51.079Z,10.00
2018-04-07T05:20:18.731Z,10.20
2018-04-07T05:22:46.343Z,10.30
2018-04-07T05:25:15.694Z,10.40
2018-04-07T05:27:43.332Z,10.40
2018-04-07T05:30:10.947Z,10.50
2018-04-07T05:32:38.825Z,10.60
2018-04-07T05:35:07.362Z,11.00
2018-04-07T05:37:35.024Z,11.00
2018-04-07T05:40:02.675Z,11.30
2018-04-07T05:42:30.315Z,11.20
2018-04-07T05:44:57.990Z,11.50
2018-04-07T05:47:25.615Z,11.50
2018-04-07T05:49:55.011Z,11.80
2018-04-07T05:52:22.671Z,11.80
2018-04-07T05:54:50.278Z,12.20
2018-04-07T05:57:18.377Z,11.90
2018-04-07T05:59:46.035Z,12.30
2018-04-07T06:02:13.643Z,12.50
2018-04-07T06:04:42.054Z,12.80
2018-04-07T06:07:09.839Z,12.70
2018-04-07T06:09:37.500Z,12.80
2018-04-07T06:12:05.171Z,12.80
2018-04-07T06:14:32.834Z,13.00
2018-04-07T06:17:00.517Z,13.30
2018-04-07T06:19:28.179Z,13.60
2018-04-07T06:21:55.790Z,13.50
2018-04-07T06:24:23.415Z,13.70
2018-04-07T06:26:51.147Z,13.40
2018-04-07T06:29:18.782Z,13.60
2018-04-07T06:31:46.434Z,13.80
2018-04-07T06:34:14.125Z,14.10
2018-04-07T06:36:41.891Z,14.00
2018-04-07T06:39:09.503Z,14.10
2018-04-07T06:41:37.948Z,13.90
2018-04-07T06:44:05.627Z,13.90
2018-04-07T06:46:33.274Z,13.90
2018-04-07T06:49:00.925Z,14.30
2018-04-07T06:51:28.583Z,14.00
2018-04-07T06:53:56.254Z,13.90
2018-04-07T06:56:23.872Z,14.00
2018-04-07T06:58:52.420Z,14.20
2018-04-07T07:01:20.174Z,14.20
2018-04-07T07:03:47.853Z,14.00
2018-04-07T07:06:15.478Z,14.00
2018-04-07T07:08:43.141Z,14.20
2018-04-07T07:11:10.757Z,14.40
2018-04-07T07:13:40.138Z,14.30
2018-04-07T07:16:07.771Z,14.30
2018-04-07T07:18:35.426Z,14.50
2018-04-07T07:21:03.596Z,14.40
2018-04-07T07:23:31.378Z,14.30
2018-04-07T07:25:58.999Z,14.40
2018-04-07T07:28:26.637Z,14.30
2018-04-07T07:30:55.173Z,14.30
2018-04-07T07:33:22.794Z,14.30
2018-04-07T07:35:51.316Z,13.90
2018-04-07T07:38:20.575Z,13.80
2018-04-07T07:40:48.296Z,14.00
2018-04-07T07:43:15.913Z,13.80
2018-04-07T07:45:43.602Z,13.90
2018-04-07T07:48:11.256Z,13.70
2018-04-07T07:50:38.942Z,13.90
2018-04-07T07:53:06.587Z,14.00
2018-04-07T07:55:34.205Z,14.00
2018-04-07T07:58:02.629Z,13.80
2018-04-07T08:00:30.237Z,13.70
2018-04-07T08:02:59.127Z,13.90
2018-04-07T08:05:27.520Z,13.50
2018-04-07T08:07:55.270Z,13.50
2018-04-07T08:10:22.919Z,13.40
2018-04-07T08:12:50.578Z,13.40
2018-04-07T08:15:18.235Z,13.50
2018-04-07T08:17:45.856Z,13.50
2018-04-07T08:20:13.511Z,13.50
2018-04-07T08:22:41.179Z,13.50
2018-04-07T08:25:08.790Z,13.60
2018-04-07T08:27:36.457Z,13.60
2018-04-07T08:30:04.085Z,13.30
2018-04-07T08:32:31.746Z,13.40
2018-04-07T08:34:59.367Z,13.40
2018-04-07T08:37:27.777Z,13.40
2018-04-07T08:39:55.489Z,13.40
2018-04-07T08:42:23.147Z,13.30
2018-04-07T08:44:50.758Z,13.40
2018-04-07T08:47:18.465Z,13.30
2018-04-07T08:49:46.117Z,13.20
2018-04-07T08:52:13.760Z,13.30
2018-04-07T08:54:41.419Z,13.40
2018-04-07T08:57:09.091Z,13.50
2018-04-07T08:59:36.735Z,13.50
2018-04-07T09:02:04.415Z,13.60
2018-04-07T09:04:32.039Z,13.60
2018-04-07T09:06:59.686Z,13.70
2018-04-07T09:09:28.231Z,13.60
2018-04-07T09:11:55.842Z,13.60
2018-04-07T09:14:23.548Z,13.70
2018-04-07T09:16:51.169Z,13.70
2018-04-07T09:19:18.815Z,13.70
2018-04-07T09:21:46.455Z,13.80
2018-04-07T09:24:14.122Z,13.80
2018-04-07T09:26:41.734Z,13.80
2018-04-07T09:29:09.439Z,13.80
2018-04-07T09:31:39.605Z,13.80
2018-04-07T09:34:07.423Z,13.90
2018-04-07T09:36:35.123Z,13.90
2018-04-07T09:39:04.378Z,14.10
2018-04-07T09:41:32.043Z,14.10
2018-04-07T09:43:59.792Z,14.10
2018-04-07T09:46:27.458Z,14.10
2018-04-07T09:48:55.095Z,14.20
2018-04-07T09:51:24.399Z,14.40
2018-04-07T09:53:52.508Z,14.30
2018-04-07T09:56:20.175Z,14.40
2018-04-07T09:58:47.939Z,14.50
2018-04-07T10:01:15.578Z,14.60
2018-04-07T10:03:43.289Z,14.70
2018-04-07T10:06:11.685Z,14.70
2018-04-07T10:08:39.402Z,14.70
2018-04-07T10:11:07.055Z,14.70
2018-04-07T10:13:34.753Z,14.80
2018-04-07T10:16:03.213Z,14.90
2018-04-07T10:18:30.835Z,14.80
2018-04-07T10:20:58.495Z,14.90
2018-04-07T10:23:26.108Z,15.00
2018-04-07T10:25:53.765Z,15.10
2018-04-07T10:28:21.390Z,15.10
2018-04-07T10:30:49.010Z,15.20
2018-04-07T10:33:17.430Z,15.30
2018-04-07T10:35:45.055Z,15.30
2018-04-07T10:38:13.430Z,15.50
2018-04-07T10:40:42.170Z,15.60
2018-04-07T10:43:09.850Z,15.50
2018-04-07T10:45:37.610Z,15.60
2018-04-07T10:48:06.154Z,15.60
2018-04-07T10:50:33.867Z,15.60
2018-04-07T10:53:01.608Z,15.70
2018-04-07T10:55:29.237Z,15.70
2018-04-07T10:57:56.933Z,15.80
2018-04-07T11:00:24.591Z,15.80
2018-04-07T11:02:52.360Z,15.80
2018-04-07T11:05:20.046Z,15.90
2018-04-07T11:07:47.658Z,16.00
2018-04-07T11:10:15.302Z,16.00
2018-04-07T11:12:43.730Z,16.00
2018-04-07T11:15:11.399Z,16.00
2018-04-07T11:17:39.060Z,16.10
2018-04-07T11:20:06.742Z,16.20
2018-04-07T11:22:34.394Z,16.20
2018-04-07T11:25:02.100Z,16.30
2018-04-07T11:27:30.502Z,16.40
2018-04-07T11:29:58.143Z,16.40
2018-04-07T11:32:26.563Z,16.50
2018-04-07T11:34:54.328Z,16.50
2018-04-07T11:37:22.007Z,16.50
2018-04-07T11:39:49.619Z,16.60
2018-04-07T11:42:17.286Z,16.60
2018-04-07T11:44:44.901Z,16.60
2018-04-07T11:47:12.561Z,16.60
2018-04-07T11:49:40.412Z,16.60
2018-04-07T11:52:09.106Z,16.80
2018-04-07T11:54:38.544Z,16.80
2018-04-07T11:57:06.998Z,16.80
2018-04-07T11:59:34.719Z,16.80
2018-04-07T12:02:02.382Z,16.80
2018-04-07T12:04:30.014Z,16.90
2018-04-07T12:06:58.398Z,17.00
2018-04-07T12:09:26.215Z,17.00
2018-04-07T12:11:53.895Z,17.00
2018-04-07T12:14:22.385Z,17.10
2018-04-07T12:16:51.594Z,17.10
2018-04-07T12:19:19.254Z,17.10
2018-04-07T12:21:46.979Z,17.10
2018-04-07T12:24:14.659Z,17.20
2018-04-07T12:26:42.275Z,17.20
2018-04-07T12:29:09.927Z,17.20
2018-04-07T12:31:37.622Z,17.20
2018-04-07T12:34:05.250Z,17.30
2018-04-07T12:36:33.076Z,17.40
2018-04-07T12:39:00.752Z,17.40
2018-04-07T12:41:28.481Z,17.50
2018-04-07T12:43:56.136Z,17.60
2018-04-07T12:46:23.766Z,17.60
2018-04-07T12:48:51.441Z,17.60
2018-04-07T12:51:19.136Z,17.60
2018-04-07T12:53:47.644Z,17.60
2018-04-07T12:56:16.106Z,17.70
2018-04-07T12:58:43.777Z,17.70
2018-04-07T13:01:11.464Z,17.70
2018-04-07T13:03:39.856Z,17.70
2018-04-07T13:06:08.381Z,17.70
2018-04-07T13:08:36.026Z,17.70
2018-04-07T13:11:03.651Z,17.70
2018-04-07T13:13:32.090Z,17.70
2018-04-07T13:16:00.665Z,17.70
2018-04-07T13:18:28.333Z,17.70
2018-04-07T13:20:55.946Z,17.80
2018-04-07T13:23:24.353Z,17.90
2018-04-07T13:25:52.034Z,17.80
2018-04-07T13:28:19.652Z,17.90
2018-04-07T13:30:48.182Z,18.00
2018-04-07T13:33:15.799Z,17.90
2018-04-07T13:35:44.926Z,17.90
2018-04-07T13:38:12.599Z,17.90
2018-04-07T13:40:40.252Z,18.10
2018-04-07T13:43:07.900Z,18.00
2018-04-07T13:45:35.691Z,18.10
2018-04-07T13:48:03.350Z,18.10
2018-04-07T13:50:31.024Z,18.10
2018-04-07T13:52:59.318Z,18.10
2018-04-07T13:55:28.439Z,18.10
2018-04-07T13:57:56.871Z,18.20
2018-04-07T14:00:24.595Z,18.10
2018-04-07T14:02:53.058Z,18.10
2018-04-07T14:05:21.599Z,18.20
2018-04-07T14:07:49.213Z,18.10
2018-04-07T14:10:17.623Z,18.10
2018-04-07T14:12:45.605Z,18.10
2018-04-07T14:15:13.387Z,18.20
2018-04-07T14:17:41.084Z,18.10
2018-04-07T14:20:09.652Z,18.10
2018-04-07T14:22:37.415Z,18.00
2018-04-07T14:25:05.100Z,18.10
2018-04-07T14:27:33.530Z,18.10
2018-04-07T14:30:01.171Z,18.00
2018-04-07T14:32:28.790Z,18.10
2018-04-07T14:34:57.229Z,18.20
2018-04-07T14:37:24.893Z,18.20
2018-04-07T14:39:52.597Z,18.20
2018-04-07T14:42:20.246Z,18.30
2018-04-07T14:44:47.934Z,18.30
2018-04-07T14:47:16.337Z,18.40
2018-04-07T14:49:43.998Z,18.30
2018-04-07T14:52:11.688Z,18.30
2018-04-07T14:54:39.347Z,18.40
2018-04-07T14:57:06.962Z,18.40
2018-04-07T14:59:35.354Z,18.30
2018-04-07T15:02:03.778Z,18.30
2018-04-07T15:04:31.391Z,18.20
2018-04-07T15:06:59.855Z,18.30
2018-04-07T15:09:28.234Z,18.50
2018-04-07T15:11:55.883Z,18.50
2018-04-07T15:14:23.542Z,18.60
2018-04-07T15:16:51.210Z,18.70
2018-04-07T15:19:18.943Z,18.80
2018-04-07T15:21:46.622Z,18.70
2018-04-07T15:24:14.244Z,18.70
2018-04-07T15:26:41.905Z,18.80
2018-04-07T15:29:09.524Z,18.80
2018-04-07T15:31:37.290Z,18.70
2018-04-07T15:34:04.967Z,18.70
2018-04-07T15:36:33.396Z,18.70
2018-04-07T15:39:01.164Z,18.70
2018-04-07T15:41:28.823Z,18.80
2018-04-07T15:43:56.434Z,18.70
2018-04-07T15:46:24.185Z,18.60
2018-04-07T15:48:53.338Z,18.70
2018-04-07T15:51:21.005Z,18.70
2018-04-07T15:53:48.672Z,18.70
2018-04-07T15:56:16.293Z,18.70
2018-04-07T15:58:44.672Z,18.80
2018-04-07T16:01:13.094Z,18.90
2018-04-07T16:03:41.743Z,18.90
2018-04-07T16:06:10.175Z,18.90
2018-04-07T16:08:37.857Z,18.90
2018-04-07T16:11:06.100Z,18.90
2018-04-07T16:13:33.743Z,18.90
2018-04-07T16:16:01.422Z,19.00
2018-04-07T16:18:29.529Z,18.90
2018-04-07T16:20:57.262Z,18.80
2018-04-07T16:23:26.202Z,18.70
2018-04-07T16:25:54.755Z,18.70
2018-04-07T16:28:23.218Z,18.80
2018-04-07T16:30:50.986Z,18.80
2018-04-07T16:33:18.638Z,18.90
2018-04-07T16:35:46.271Z,18.90
2018-04-07T16:38:13.895Z,18.90
2018-04-07T16:40:41.555Z,18.80
2018-04-07T16:43:09.180Z,18.90
2018-04-07T16:45:36.838Z,18.90
2018-04-07T16:48:04.455Z,18.80
2018-04-07T16:50:32.209Z,18.90
2018-04-07T16:52:59.820Z,18.80
2018-04-07T16:55:27.451Z,18.80
2018-04-07T16:57:56.144Z,18.80
2018-04-07T17:00:24.547Z,18.80
2018-04-07T17:02:52.226Z,18.70
2018-04-07T17:05:20.210Z,18.80
2018-04-07T17:07:47.862Z,18.70
2018-04-07T17:10:15.632Z,18.70
2018-04-07T17:12:43.984Z,18.60
2018-04-07T17:15:11.773Z,18.60
2018-04-07T17:17:39.537Z,18.60
2018-04-07T17:20:07.215Z,18.60
2018-04-07T17:22:34.870Z,18.50
2018-04-07T17:25:02.728Z,18.50
2018-04-07T17:27:30.463Z,18.50
2018-04-07T17:29:58.155Z,18.50
2018-04-07T17:32:25.798Z,18.40
2018-04-07T17:34:53.519Z,18.40
2018-04-07T17:37:21.652Z,18.30
2018-04-07T17:39:49.450Z,18.30
2018-04-07T17:42:17.173Z,18.30
2018-04-07T17:44:44.848Z,18.30
2018-04-07T17:47:12.626Z,18.30
2018-04-07T17:49:43.734Z,18.30
2018-04-07T17:52:08.875Z,18.20
2018-04-07T17:54:37.034Z,18.20
2018-04-07T17:57:04.716Z,18.20
2018-04-07T17:59:33.195Z,18.10
2018-04-07T18:02:00.895Z,18.10
2018-04-07T18:04:29.383Z,18.00
2018-04-07T18:06:58.025Z,18.00
2018-04-07T18:09:25.679Z,17.90
2018-04-07T18:11:55.787Z,18.00
2018-04-07T18:14:23.559Z,17.90
2018-04-07T18:16:51.332Z,17.90
2018-04-07T18:19:18.950Z,17.90
2018-04-07T18:21:46.666Z,17.80
2018-04-07T18:24:14.312Z,17.80
2018-04-07T18:26:41.927Z,17.80
2018-04-07T18:29:09.602Z,17.70
2018-04-07T18:31:37.223Z,17.70
2018-04-07T18:34:04.883Z,17.70
2018-04-07T18:36:32.552Z,17.70
2018-04-07T18:39:00.197Z,17.60
2018-04-07T18:41:27.816Z,17.60
2018-04-07T18:43:55.489Z,17.60
2018-04-07T18:46:23.115Z,17.50
2018-04-07T18:48:51.536Z,17.50
2018-04-07T18:51:19.190Z,17.50
2018-04-07T18:53:46.839Z,17.40
2018-04-07T18:56:14.507Z,17.40
2018-04-07T18:58:42.888Z,17.30
2018-04-07T19:01:10.580Z,17.30
2018-04-07T19:03:38.208Z,17.30
2018-04-07T19:06:05.896Z,17.30
2018-04-07T19:08:33.555Z,17.30
2018-04-07T19:11:01.180Z,17.20
2018-04-07T19:13:29.719Z,17.10
2018-04-07T19:15:57.366Z,17.10
2018-04-07T19:18:25.045Z,17.10
2018-04-07T19:20:52.669Z,17.20
2018-04-07T19:23:20.410Z,17.10
2018-04-07T19:25:48.844Z,17.10
2018-04-07T19:28:16.602Z,17.10
2018-04-07T19:30:44.393Z,17.00
2018-04-07T19:33:12.109Z,17.00
2018-04-07T19:35:39.801Z,17.00
2018-04-07T19:38:07.419Z,17.00
2018-04-07T19:40:35.047Z,17.00
2018-04-07T19:43:02.767Z,17.00
2018-04-07T19:45:30.442Z,16.90
2018-04-07T19:47:58.072Z,16.90
2018-04-07T19:50:25.751Z,16.90
2018-04-07T19:52:53.399Z,16.90
2018-04-07T19:55:21.044Z,16.80
2018-04-07T19:57:49.466Z,16.80
2018-04-07T20:00:17.127Z,16.70
2018-04-07T20:02:44.814Z,16.70
2018-04-07T20:05:12.490Z,16.70
2018-04-07T20:07:40.232Z,16.60
2018-04-07T20:10:08.290Z,16.60
2018-04-07T20:12:36.015Z,16.60
2018-04-07T20:15:04.455Z,16.70
2018-04-07T20:17:32.095Z,16.60
2018-04-07T20:20:00.705Z,16.60
2018-04-07T20:22:28.407Z,16.50
2018-04-07T20:24:57.040Z,16.40
2018-04-07T20:27:24.840Z,16.40
2018-04-07T20:29:53.233Z,16.30
2018-04-07T20:32:21.671Z,16.30
2018-04-07T20:34:49.290Z,16.20
2018-04-07T20:37:17.711Z,16.30
2018-04-07T20:39:45.458Z,16.20
2018-04-07T20:42:26.141Z,16.20
2018-04-07T20:44:53.820Z,16.10
2018-04-07T20:47:23.740Z,16.10
2018-04-07T20:49:51.363Z,16.10
2018-04-07T20:52:19.095Z,16.10
2018-04-07T20:54:47.137Z,16.00
2018-04-07T20:57:14.975Z,16.00
2018-04-07T20:59:42.641Z,15.90
2018-04-07T21:02:10.404Z,15.80
2018-04-07T21:04:38.073Z,15.80
2018-04-07T21:07:05.751Z,15.80
2018-04-07T21:09:33.493Z,15.80
2018-04-07T21:12:01.161Z,15.80
2018-04-07T21:14:28.817Z,15.70
2018-04-07T21:16:56.437Z,15.80
2018-04-07T21:19:24.866Z,15.60
2018-04-07T21:21:52.622Z,15.60
2018-04-07T21:24:20.387Z,15.50
2018-04-07T21:26:48.044Z,15.60
2018-04-07T21:29:15.701Z,15.60
2018-04-07T21:31:43.416Z,15.60
2018-04-07T21:34:11.870Z,15.50
2018-04-07T21:36:40.422Z,15.50
2018-04-07T21:39:08.055Z,15.50
2018-04-07T21:41:36.584Z,15.60
2018-04-07T21:44:04.282Z,15.50
2018-04-07T21:46:32.603Z,15.50
2018-04-07T21:49:00.219Z,15.40
2018-04-07T21:51:27.977Z,15.40
2018-04-07T21:53:55.965Z,15.50
2018-04-07T21:56:24.361Z,15.50
2018-04-07T21:58:52.739Z,15.40
2018-04-07T22:01:21.159Z,15.40
2018-04-07T22:03:48.770Z,15.40
2018-04-07T22:06:17.175Z,15.40
2018-04-07T22:08:45.070Z,15.30
2018-04-07T22:11:12.732Z,15.30
2018-04-07T22:13:40.361Z,15.30
2018-04-07T22:16:08.014Z,15.40
2018-04-07T22:18:36.436Z,15.30
2018-04-07T22:21:04.220Z,15.30
2018-04-07T22:23:32.070Z,15.20
2018-04-07T22:25:59.697Z,15.30
2018-04-07T22:28:28.012Z,15.30
2018-04-07T22:30:55.670Z,15.20
2018-04-07T22:33:23.378Z,15.20
2018-04-07T22:35:51.799Z,15.10
2018-04-07T22:38:19.455Z,15.10
2018-04-07T22:40:47.088Z,15.00
2018-04-07T22:43:15.505Z,14.90
2018-04-07T22:45:43.154Z,14.80
2018-04-07T22:48:10.838Z,15.00
2018-04-07T22:50:38.458Z,15.00
2018-04-07T22:53:06.847Z,14.80
2018-04-07T22:55:35.288Z,14.90
2018-04-07T22:58:03.738Z,14.90
2018-04-07T23:00:31.430Z,14.90
2018-04-07T23:02:59.072Z,14.90
2018-04-07T23:05:26.682Z,14.90
2018-04-07T23:07:55.123Z,14.80
2018-04-07T23:10:22.897Z,14.80
2018-04-07T23:12:50.539Z,14.80
2018-04-07T23:15:18.252Z,14.70
2018-04-07T23:17:46.692Z,14.60
2018-04-07T23:20:14.323Z,14.60
2018-04-07T23:22:41.951Z,14.60
2018-04-07T23:25:10.431Z,14.30
2018-04-07T23:27:38.879Z,14.30
2018-04-07T23:30:06.495Z,14.30
2018-04-07T23:32:34.396Z,14.40
2018-04-07T23:35:02.034Z,14.30
2018-04-07T23:37:29.653Z,14.30
2018-04-07T23:39:57.319Z,14.30
2018-04-07T23:42:24.963Z,14.30
2018-04-07T23:44:52.586Z,14.30
2018-04-07T23:47:20.274Z,14.20
2018-04-07T23:49:47.902Z,14.30
2018-04-07T23:52:15.523Z,14.30
2018-04-07T23:54:43.258Z,14.30
2018-04-07T23:57:10.875Z,14.20
2018-04-07T23:59:39.266Z,14.10
